createdAt,value
2022-12-18T00:00:48.037Z,87.96
2022-12-18T00:03:20.202Z,88.17
2022-12-18T00:05:53.622Z,88.59
2022-12-18T00:08:25.685Z,88.84
2022-12-18T00:11:07.098Z,88.76
2022-12-18T00:13:39.640Z,88.28
2022-12-18T00:16:21.359Z,87.93
2022-12-18T00:18:56.664Z,87.42
2022-12-18T00:21:30.440Z,87.08
2022-12-18T00:24:02.623Z,87.01
2022-12-18T00:26:35.823Z,87.52
2022-12-18T00:29:14.685Z,87.20
2022-12-18T00:31:47.036Z,88.20
2022-12-18T00:34:19.047Z,87.67
2022-12-18T00:36:51.122Z,88.04
2022-12-18T00:39:23.144Z,87.69
2022-12-18T00:42:13.418Z,88.61
2022-12-18T00:44:45.494Z,88.68
2022-12-18T00:47:20.374Z,88.90
2022-12-18T00:49:52.356Z,88.58
2022-12-18T00:52:24.317Z,88.32
2022-12-18T00:54:56.301Z,87.71
2022-12-18T00:57:28.280Z,87.30
2022-12-18T01:00:00.225Z,87.73
2022-12-18T01:02:32.438Z,88.07
2022-12-18T01:05:05.473Z,87.89
2022-12-18T01:07:37.754Z,88.35
2022-12-18T01:10:12.700Z,88.39
2022-12-18T01:12:45.021Z,87.84
2022-12-18T01:15:18.080Z,87.83
2022-12-18T01:17:50.078Z,87.41
2022-12-18T01:20:22.090Z,87.86
2022-12-18T01:22:54.067Z,87.95
2022-12-18T01:25:26.261Z,87.69
2022-12-18T01:27:58.313Z,88.02
2022-12-18T01:30:30.375Z,88.01
2022-12-18T01:33:02.281Z,88.10
2022-12-18T01:35:41.157Z,87.80
2022-12-18T01:38:13.289Z,88.42
2022-12-18T01:40:45.320Z,87.97
2022-12-18T01:43:17.295Z,88.50
2022-12-18T01:45:49.269Z,87.82
2022-12-18T01:48:21.219Z,87.30
2022-12-18T01:50:53.433Z,87.56
2022-12-18T01:53:25.405Z,87.56
2022-12-18T01:55:59.912Z,87.41
2022-12-18T01:58:46.900Z,87.43
2022-12-18T02:01:19.659Z,87.17
2022-12-18T02:03:52.730Z,87.21
2022-12-18T02:06:41.537Z,87.33
2022-12-18T02:09:25.486Z,87.29
2022-12-18T02:12:35.121Z,87.29
2022-12-18T02:15:56.890Z,87.13
2022-12-18T02:18:40.215Z,86.75
2022-12-18T02:21:36.278Z,86.91
2022-12-18T02:24:48.381Z,87.07
2022-12-18T02:27:21.626Z,87.40
2022-12-18T02:29:58.748Z,87.27
2022-12-18T02:32:44.843Z,86.68
2022-12-18T02:35:24.119Z,86.06
2022-12-18T02:37:57.638Z,86.06
2022-12-18T02:40:30.643Z,86.40
2022-12-18T02:43:15.706Z,87.24
2022-12-18T02:45:58.475Z,87.72
2022-12-18T02:48:36.237Z,87.03
2022-12-18T02:51:28.376Z,87.33
2022-12-18T02:54:34.746Z,87.31
2022-12-18T02:57:37.830Z,87.11
2022-12-18T03:00:23.868Z,86.93
2022-12-18T03:03:25.722Z,86.03
2022-12-18T03:06:06.412Z,86.19
2022-12-18T03:08:43.683Z,86.15
2022-12-18T03:11:15.827Z,86.20
2022-12-18T03:13:58.478Z,86.43
2022-12-18T03:16:34.737Z,86.57
2022-12-18T03:19:15.419Z,86.88
2022-12-18T03:21:53.012Z,87.20
2022-12-18T03:24:27.878Z,87.05
2022-12-18T03:27:04.014Z,87.46
2022-12-18T03:29:47.675Z,87.23
2022-12-18T03:32:30.860Z,86.73
2022-12-18T03:35:06.832Z,87.03
2022-12-18T03:37:39.249Z,87.11
2022-12-18T03:40:11.865Z,86.59
2022-12-18T03:42:58.369Z,86.09
2022-12-18T03:45:39.706Z,86.51
2022-12-18T03:48:33.934Z,86.74
2022-12-18T03:51:47.176Z,86.94
2022-12-18T03:54:20.187Z,86.97
2022-12-18T03:57:01.443Z,86.95
2022-12-18T03:59:35.588Z,86.83
2022-12-18T04:02:10.376Z,86.61
2022-12-18T04:04:44.461Z,86.53
2022-12-18T04:07:17.298Z,87.03
2022-12-18T04:09:51.468Z,87.07
2022-12-18T04:12:27.273Z,86.39
2022-12-18T04:14:59.356Z,86.73
2022-12-18T04:17:31.298Z,86.99
2022-12-18T04:20:03.466Z,87.32
2022-12-18T04:22:36.496Z,87.26
2022-12-18T04:25:09.260Z,86.53
2022-12-18T04:27:41.251Z,86.54
2022-12-18T04:30:13.382Z,86.27
2022-12-18T04:32:50.484Z,85.76
2022-12-18T04:35:24.083Z,86.31
2022-12-18T04:37:56.109Z,86.74
2022-12-18T04:40:28.067Z,86.70
2022-12-18T04:43:00.144Z,86.58
2022-12-18T04:45:33.236Z,86.46
2022-12-18T04:48:06.040Z,86.39
2022-12-18T04:50:38.110Z,85.66
2022-12-18T04:53:10.223Z,85.89
2022-12-18T04:55:42.311Z,85.98
2022-12-18T04:58:14.351Z,85.46
2022-12-18T05:00:46.266Z,85.37
2022-12-18T05:03:18.246Z,85.65
2022-12-18T05:05:53.661Z,85.69
2022-12-18T05:08:25.667Z,86.04
2022-12-18T05:11:10.498Z,86.56
2022-12-18T05:13:44.122Z,86.42
2022-12-18T05:16:16.533Z,86.58
2022-12-18T05:18:48.536Z,86.75
2022-12-18T05:21:20.529Z,86.96
2022-12-18T05:23:52.533Z,87.44
2022-12-18T05:26:24.603Z,87.39
2022-12-18T05:28:56.608Z,86.74
2022-12-18T05:31:28.887Z,86.14
2022-12-18T05:34:00.919Z,85.96
2022-12-18T05:36:32.953Z,85.78
2022-12-18T05:39:05.052Z,85.75
2022-12-18T05:41:38.079Z,85.80
2022-12-18T05:44:10.022Z,85.59
2022-12-18T05:46:42.046Z,86.19
2022-12-18T05:49:14.026Z,85.70
2022-12-18T05:51:46.206Z,86.16
2022-12-18T05:54:18.157Z,86.02
2022-12-18T05:56:50.173Z,85.93
2022-12-18T05:59:22.328Z,85.47
2022-12-18T06:01:54.425Z,85.30
2022-12-18T06:04:29.774Z,85.64
2022-12-18T06:07:01.722Z,85.56
2022-12-18T06:09:33.785Z,85.22
2022-12-18T06:12:06.311Z,85.22
2022-12-18T06:14:38.327Z,85.51
2022-12-18T06:17:10.305Z,85.71
2022-12-18T06:19:42.253Z,85.50
2022-12-18T06:22:14.208Z,85.67
2022-12-18T06:24:46.142Z,86.14
2022-12-18T06:27:18.219Z,85.77
2022-12-18T06:29:50.142Z,85.45
2022-12-18T06:32:22.099Z,85.59
2022-12-18T06:34:54.893Z,86.10
2022-12-18T06:37:27.274Z,85.84
2022-12-18T06:39:59.328Z,86.34
2022-12-18T06:42:31.274Z,86.28
2022-12-18T06:45:03.618Z,85.07
2022-12-18T06:47:35.530Z,85.53
2022-12-18T06:50:08.199Z,85.14
2022-12-18T06:52:41.325Z,85.06
2022-12-18T06:55:13.284Z,85.25
2022-12-18T06:57:45.281Z,84.92
2022-12-18T07:00:17.650Z,84.42
2022-12-18T07:02:49.670Z,84.53
2022-12-18T07:05:21.733Z,84.16
2022-12-18T07:07:53.625Z,84.46
2022-12-18T07:10:25.697Z,84.78
2022-12-18T07:12:57.691Z,84.28
2022-12-18T07:15:29.711Z,84.16
2022-12-18T07:18:01.632Z,84.30
2022-12-18T07:20:33.660Z,84.51
2022-12-18T07:23:06.376Z,84.48
2022-12-18T07:25:38.649Z,83.91
2022-12-18T07:28:17.039Z,83.82
2022-12-18T07:30:49.379Z,84.21
2022-12-18T07:33:21.383Z,83.82
2022-12-18T07:35:55.944Z,84.04
2022-12-18T07:38:28.249Z,84.21
2022-12-18T07:41:12.295Z,84.10
2022-12-18T07:43:44.800Z,84.88
2022-12-18T07:46:20.071Z,85.67
2022-12-18T07:48:52.017Z,85.12
2022-12-18T07:51:23.990Z,85.03
2022-12-18T07:53:55.903Z,85.20
2022-12-18T07:56:31.567Z,84.95
2022-12-18T07:59:03.665Z,84.62
2022-12-18T08:04:12.605Z,84.35
2022-12-18T08:06:47.828Z,83.89
2022-12-18T08:09:20.357Z,84.21
2022-12-18T08:11:52.247Z,84.26
2022-12-18T08:14:24.268Z,85.07
2022-12-18T08:16:56.200Z,84.81
2022-12-18T08:19:28.170Z,84.84
2022-12-18T08:22:00.083Z,84.77
2022-12-18T08:24:32.584Z,85.19
2022-12-18T08:29:57.461Z,84.36
2022-12-18T08:32:29.707Z,84.83
2022-12-18T08:35:01.782Z,84.14
2022-12-18T08:37:33.720Z,84.37
2022-12-18T08:40:06.777Z,84.16
2022-12-18T08:42:57.050Z,84.31
2022-12-18T08:45:29.163Z,83.63
2022-12-18T08:48:01.081Z,83.61
2022-12-18T08:50:33.090Z,83.38
2022-12-18T08:53:05.234Z,82.93
2022-12-18T08:58:24.018Z,82.76
2022-12-18T09:01:01.089Z,82.17
2022-12-18T09:03:33.734Z,82.38
2022-12-18T09:06:06.458Z,81.91
2022-12-18T09:08:38.914Z,82.00
2022-12-18T09:11:26.908Z,81.79
2022-12-18T09:14:02.445Z,82.21
2022-12-18T09:16:36.160Z,82.74
2022-12-18T09:19:08.387Z,83.09
2022-12-18T09:21:46.130Z,82.58
2022-12-18T09:24:19.909Z,81.83
2022-12-18T09:26:57.866Z,81.57
2022-12-18T09:29:30.251Z,81.48
2022-12-18T09:32:02.226Z,80.85
2022-12-18T09:34:34.258Z,80.73
2022-12-18T09:37:06.177Z,80.52
2022-12-18T09:39:38.099Z,80.56
2022-12-18T09:42:23.158Z,80.21
2022-12-18T09:44:55.812Z,79.79
2022-12-18T09:47:37.255Z,78.92
2022-12-18T09:50:39.175Z,79.47
2022-12-18T09:53:25.364Z,79.62
2022-12-18T09:55:58.635Z,79.13
2022-12-18T09:58:46.560Z,78.57
2022-12-18T10:01:28.984Z,79.65
2022-12-18T10:04:10.058Z,79.62
2022-12-18T10:06:47.774Z,78.75
2022-12-18T10:09:22.761Z,79.35
2022-12-18T10:12:15.872Z,78.06
2022-12-18T10:15:34.746Z,78.51
2022-12-18T10:19:12.923Z,79.06
2022-12-18T10:22:11.732Z,78.54
2022-12-18T10:24:58.048Z,78.74
2022-12-18T10:27:32.149Z,78.07
2022-12-18T10:30:15.969Z,77.44
2022-12-18T10:32:49.199Z,77.51
2022-12-18T10:35:27.919Z,77.79
2022-12-18T10:38:13.856Z,78.37
2022-12-18T10:41:26.812Z,78.00
2022-12-18T10:44:24.954Z,78.92
2022-12-18T10:47:11.649Z,78.18
2022-12-18T10:49:53.162Z,78.15
2022-12-18T10:52:27.066Z,77.91
2022-12-18T10:55:04.290Z,78.29
2022-12-18T10:57:42.583Z,77.75
2022-12-18T11:00:28.695Z,78.52
2022-12-18T11:03:00.800Z,78.79
2022-12-18T11:05:37.998Z,78.03
2022-12-18T11:08:25.162Z,78.12
2022-12-18T11:10:57.151Z,78.21
2022-12-18T11:13:32.398Z,78.59
2022-12-18T11:16:05.091Z,78.68
2022-12-18T11:18:37.810Z,77.99
2022-12-18T11:21:15.794Z,77.58
2022-12-18T11:23:55.184Z,77.80
2022-12-18T11:26:36.913Z,77.46
2022-12-18T11:29:18.034Z,76.22
2022-12-18T11:31:50.305Z,76.36
2022-12-18T11:34:30.293Z,76.41
2022-12-18T11:37:04.203Z,76.17
2022-12-18T11:39:50.300Z,76.82
2022-12-18T11:42:35.820Z,75.51
2022-12-18T11:45:26.325Z,75.84
2022-12-18T11:48:30.467Z,76.00
2022-12-18T11:51:10.130Z,76.29
2022-12-18T11:53:42.324Z,75.37
2022-12-18T11:56:50.575Z,75.50
2022-12-18T11:59:53.582Z,74.88
2022-12-18T12:03:07.497Z,73.28
2022-12-18T12:06:07.509Z,73.29
2022-12-18T12:09:03.952Z,73.63
2022-12-18T12:11:42.767Z,73.45
2022-12-18T12:14:48.975Z,73.65
2022-12-18T12:18:08.149Z,73.45
2022-12-18T12:21:43.861Z,73.47
2022-12-18T12:24:33.366Z,74.45
2022-12-18T12:27:40.911Z,74.85
2022-12-18T12:30:35.003Z,75.37
2022-12-18T12:33:26.901Z,75.30
2022-12-18T12:37:10.795Z,75.20
2022-12-18T12:39:46.038Z,75.52
2022-12-18T12:43:07.497Z,75.45
2022-12-18T12:45:52.158Z,76.02
2022-12-18T12:48:50.560Z,76.84
2022-12-18T12:51:30.164Z,76.68
2022-12-18T12:54:05.642Z,76.83
2022-12-18T12:57:27.360Z,76.31
2022-12-18T13:00:14.553Z,76.37
2022-12-18T13:03:28.848Z,77.00
2022-12-18T13:06:11.327Z,77.04
2022-12-18T13:09:00.998Z,76.58
2022-12-18T13:12:04.432Z,76.71
2022-12-18T13:14:38.926Z,77.05
2022-12-18T13:17:24.805Z,76.56
2022-12-18T13:20:15.907Z,75.96
2022-12-18T13:22:51.318Z,76.36
2022-12-18T13:25:38.401Z,76.58
2022-12-18T13:28:16.527Z,76.42
2022-12-18T13:30:55.066Z,76.35
2022-12-18T13:36:37.373Z,75.82
2022-12-18T13:39:30.281Z,76.50
2022-12-18T13:42:08.643Z,76.28
2022-12-18T13:44:42.469Z,76.62
2022-12-18T13:47:33.435Z,76.63
2022-12-18T13:50:29.745Z,76.92
2022-12-18T13:53:06.382Z,76.99
2022-12-18T13:55:38.663Z,77.44
2022-12-18T13:58:13.606Z,76.89
2022-12-18T14:00:46.319Z,76.95
2022-12-18T14:03:27.291Z,76.75
2022-12-18T14:06:17.934Z,76.89
2022-12-18T14:08:51.312Z,77.17
2022-12-18T14:11:25.295Z,76.68
2022-12-18T14:13:58.966Z,76.33
2022-12-18T14:16:32.934Z,76.58
2022-12-18T14:19:15.083Z,77.01
2022-12-18T14:21:50.855Z,76.64
2022-12-18T14:24:23.333Z,76.79
2022-12-18T14:26:55.325Z,76.70
2022-12-18T14:29:32.274Z,76.68
2022-12-18T14:32:19.008Z,76.29
2022-12-18T14:34:55.434Z,75.43
2022-12-18T14:37:28.569Z,75.74
2022-12-18T14:40:10.993Z,75.34
2022-12-18T14:42:43.665Z,75.71
2022-12-18T14:45:41.728Z,75.93
2022-12-18T14:48:38.818Z,76.13
2022-12-18T14:51:27.811Z,75.61
2022-12-18T14:54:09.262Z,75.97
2022-12-18T14:56:48.665Z,76.26
2022-12-18T14:59:26.257Z,75.37
2022-12-18T15:02:16.796Z,75.67
2022-12-18T15:04:50.111Z,75.61
2022-12-18T15:07:24.743Z,75.70
2022-12-18T15:10:08.744Z,75.41
2022-12-18T15:12:49.786Z,76.04
2022-12-18T15:15:37.160Z,76.08
2022-12-18T15:18:13.113Z,75.08
2022-12-18T15:20:55.956Z,75.11
2022-12-18T15:23:37.312Z,74.87
2022-12-18T15:26:12.994Z,74.86
2022-12-18T15:28:57.343Z,74.60
2022-12-18T15:31:37.910Z,74.41
2022-12-18T15:34:20.282Z,74.41
2022-12-18T15:36:53.081Z,73.68
2022-12-18T15:39:25.201Z,73.06
2022-12-18T15:42:15.699Z,73.79
2022-12-18T15:44:48.082Z,72.99
2022-12-18T15:47:20.085Z,73.12
2022-12-18T15:49:52.096Z,72.79
2022-12-18T15:52:27.297Z,72.61
2022-12-18T15:55:17.684Z,72.43
2022-12-18T15:57:49.699Z,72.14
2022-12-18T16:00:21.858Z,71.91
2022-12-18T16:02:54.036Z,71.27
2022-12-18T16:05:28.645Z,71.46
2022-12-18T16:08:00.671Z,71.33
2022-12-18T16:10:32.712Z,71.47
2022-12-18T16:13:04.664Z,70.77
2022-12-18T16:15:36.665Z,71.15
2022-12-18T16:18:08.914Z,70.95
2022-12-18T16:20:41.010Z,70.62
2022-12-18T16:23:13.065Z,70.37
2022-12-18T16:25:45.137Z,70.50
2022-12-18T16:28:17.364Z,70.44
2022-12-18T16:30:49.289Z,70.17
2022-12-18T16:33:21.282Z,69.78
2022-12-18T16:35:54.223Z,70.46
2022-12-18T16:38:26.166Z,70.65
2022-12-18T16:41:23.935Z,70.50
2022-12-18T16:43:55.890Z,69.51
2022-12-18T16:46:28.260Z,69.61
2022-12-18T16:49:01.105Z,69.90
2022-12-18T16:51:33.044Z,69.93
2022-12-18T16:54:10.192Z,70.31
2022-12-18T16:56:43.752Z,70.50
2022-12-18T16:59:16.170Z,70.49
2022-12-18T17:01:48.415Z,70.11
2022-12-18T17:04:20.478Z,70.62
2022-12-18T17:06:53.925Z,70.23
2022-12-18T17:09:26.044Z,70.28
2022-12-18T17:11:58.009Z,70.59
2022-12-18T17:14:30.551Z,70.57
2022-12-18T17:19:54.764Z,71.07
2022-12-18T17:22:26.726Z,71.22
2022-12-18T17:24:58.711Z,71.65
2022-12-18T17:27:30.804Z,71.75
2022-12-18T17:30:04.019Z,72.29
2022-12-18T17:32:36.672Z,72.00
2022-12-18T17:35:09.351Z,71.86
2022-12-18T17:37:41.277Z,72.69
2022-12-18T17:40:13.888Z,72.81
2022-12-18T17:42:45.904Z,72.79
2022-12-18T17:45:17.985Z,72.81
2022-12-18T17:47:49.985Z,72.72
2022-12-18T17:50:22.235Z,72.61
2022-12-18T17:52:57.977Z,72.77
2022-12-18T17:55:30.029Z,73.11
2022-12-18T17:58:02.059Z,72.54
2022-12-18T18:00:34.255Z,72.17
2022-12-18T18:03:06.369Z,72.32
2022-12-18T18:05:38.512Z,72.65
2022-12-18T18:08:10.511Z,72.69
2022-12-18T18:10:42.633Z,72.99
2022-12-18T18:13:46.971Z,72.71
2022-12-18T18:16:19.416Z,72.99
2022-12-18T18:18:51.376Z,72.45
2022-12-18T18:21:23.371Z,72.14
2022-12-18T18:24:02.203Z,72.26
2022-12-18T18:26:35.902Z,72.15
2022-12-18T18:29:11.673Z,72.77
2022-12-18T18:31:43.954Z,71.80
2022-12-18T18:34:25.351Z,71.89
2022-12-18T18:36:57.476Z,72.09
2022-12-18T18:39:29.648Z,72.69
2022-12-18T18:42:01.707Z,72.64
2022-12-18T18:44:33.810Z,72.81
2022-12-18T18:47:08.602Z,72.18
2022-12-18T18:49:41.724Z,71.90
2022-12-18T18:52:13.659Z,72.13
2022-12-18T18:55:11.727Z,72.49
2022-12-18T18:57:42.156Z,71.90
2022-12-18T19:00:15.485Z,72.23
2022-12-18T19:02:48.194Z,72.06
2022-12-18T19:05:20.454Z,71.51
2022-12-18T19:07:52.593Z,71.70
2022-12-18T19:10:24.589Z,71.98
2022-12-18T19:13:15.006Z,71.43
2022-12-18T19:15:52.104Z,70.76
2022-12-18T19:18:24.198Z,70.74
2022-12-18T19:21:02.023Z,71.37
2022-12-18T19:23:34.662Z,70.83
2022-12-18T19:29:07.269Z,72.46
2022-12-18T19:31:39.278Z,72.23
2022-12-18T19:34:12.141Z,72.00
2022-12-18T19:36:44.486Z,72.04
2022-12-18T19:39:19.176Z,71.98
2022-12-18T19:41:52.575Z,72.35
2022-12-18T19:44:24.834Z,72.50
2022-12-18T19:46:56.788Z,72.65
2022-12-18T19:49:28.768Z,73.12
2022-12-18T19:52:01.397Z,72.80
2022-12-18T19:54:33.501Z,73.05
2022-12-18T19:57:07.777Z,73.35
2022-12-18T19:59:39.952Z,73.05
2022-12-18T20:02:15.700Z,72.70
2022-12-18T20:04:48.981Z,72.06
2022-12-18T20:07:20.924Z,72.17
2022-12-18T20:09:59.531Z,72.20
2022-12-18T20:12:36.037Z,72.61
2022-12-18T20:15:09.162Z,72.74
2022-12-18T20:17:41.226Z,72.75
2022-12-18T20:20:13.215Z,72.36
2022-12-18T20:22:45.480Z,72.23
2022-12-18T20:25:17.905Z,72.45
2022-12-18T20:27:49.955Z,71.53
2022-12-18T20:30:22.084Z,71.38
2022-12-18T20:32:54.098Z,71.31
2022-12-18T20:35:28.297Z,71.66
2022-12-18T20:38:00.955Z,71.51
2022-12-18T20:40:33.712Z,71.63
2022-12-18T20:43:07.075Z,71.66
2022-12-18T20:45:39.224Z,71.74
2022-12-18T20:48:13.604Z,71.69
2022-12-18T20:50:45.597Z,71.42
2022-12-18T20:53:17.542Z,71.53
2022-12-18T20:55:49.523Z,71.48
2022-12-18T20:58:21.485Z,71.12
2022-12-18T21:01:24.325Z,71.21
2022-12-18T21:03:56.528Z,71.68
2022-12-18T21:06:28.517Z,71.93
2022-12-18T21:09:00.487Z,71.79
2022-12-18T21:11:52.370Z,71.09
2022-12-18T21:14:29.236Z,71.61
2022-12-18T21:17:02.212Z,71.93
2022-12-18T21:19:34.306Z,72.18
2022-12-18T21:22:06.585Z,72.36
2022-12-18T21:24:38.553Z,72.28
2022-12-18T21:27:10.815Z,72.14
2022-12-18T21:29:47.298Z,72.18
2022-12-18T21:32:19.572Z,72.36
2022-12-18T21:34:52.815Z,72.40
2022-12-18T21:37:24.754Z,72.38
2022-12-18T21:39:56.965Z,72.94
2022-12-18T21:42:47.501Z,72.13
2022-12-18T21:45:19.367Z,71.81
2022-12-18T21:47:51.330Z,71.90
2022-12-18T21:50:23.269Z,71.80
2022-12-18T21:52:55.575Z,71.85
2022-12-18T21:55:27.592Z,71.27
2022-12-18T21:57:59.515Z,71.47
2022-12-18T22:00:31.513Z,70.85
2022-12-18T22:03:18.154Z,70.75
2022-12-18T22:05:56.203Z,70.99
2022-12-18T22:08:43.045Z,70.99
2022-12-18T22:11:15.902Z,70.93
2022-12-18T22:13:49.755Z,70.77
2022-12-18T22:16:21.839Z,70.73
2022-12-18T22:18:54.415Z,70.49
2022-12-18T22:21:29.485Z,70.75
2022-12-18T22:24:12.891Z,70.68
2022-12-18T22:26:45.777Z,70.95
2022-12-18T22:29:42.227Z,71.38
2022-12-18T22:32:17.124Z,71.04
2022-12-18T22:35:09.410Z,71.06
2022-12-18T22:37:44.793Z,71.15
2022-12-18T22:40:25.361Z,71.61
2022-12-18T22:42:58.392Z,72.01
2022-12-18T22:45:30.365Z,72.05
2022-12-18T22:48:03.235Z,72.14
2022-12-18T22:50:35.165Z,72.17
2022-12-18T22:53:07.937Z,72.57
2022-12-18T22:55:39.997Z,72.64
2022-12-18T22:58:11.928Z,72.67
2022-12-18T23:00:43.889Z,72.77
2022-12-18T23:03:15.879Z,72.49
2022-12-18T23:05:47.938Z,72.95
2022-12-18T23:08:20.006Z,72.38
2022-12-18T23:10:53.660Z,72.33
2022-12-18T23:13:26.621Z,72.14
2022-12-18T23:15:58.576Z,72.15
2022-12-18T23:18:30.530Z,72.79
2022-12-18T23:21:22.189Z,73.06
2022-12-18T23:23:54.963Z,73.19
2022-12-18T23:26:27.756Z,73.16
2022-12-18T23:29:01.562Z,73.81
2022-12-18T23:31:37.798Z,74.05
2022-12-18T23:34:14.147Z,74.17
2022-12-18T23:36:47.439Z,74.19
2022-12-18T23:39:28.730Z,74.19
2022-12-18T23:42:01.618Z,74.30
2022-12-18T23:44:34.038Z,74.13
2022-12-18T23:47:07.149Z,74.86
2022-12-18T23:49:39.073Z,74.87
2022-12-18T23:52:11.746Z,74.84
2022-12-18T23:54:43.697Z,75.03
2022-12-18T23:57:15.740Z,75.33
2022-12-18T23:59:47.739Z,75.55
